Maurertown, Virginia
Current Conditions -  °F | °C
As of 11:55 PM on Saturday 22 Nov 2014 (Local Time) from KFRR Reporting Station
Overcast Overcast  
Wind Chill:   Ceiling: 11000
Heat Index:   Visibility: 10mi
Dew Point: -7°   Wind: 8mph
Humidity: 37%   Direction: 220°SW
Pressure: 30.18"   Gusts: 17mph
Location:  38.93°N, 78.46°W
Report Text: KFRR 230455Z AUTO 22007G15KT 190V250 10SM OVC110 07/M07 A3018 RMK AO1
Loading
Personal Weather Stations






























Interactive Weather Map New forecast layout! Learn more

10-Day Weather Forecast

Advertisements
Track Severe Weather on mobile